Time;durP1;ratioP1;P1;durP2;ratioP2;P2;SDS_P1;SDS_P2;PMS_P1;PMS_P2;Temp;Humidity;BMP_temperature;BMP_pressure;BME280_temperature;BME280_humidity;BME280_pressure;Samples;Min_cycle;Max_cycle;Signal;HPM_P1;HPM_P2
2022/02/28 00:01:10;;;;;;;6.70;3.55;;;9.50;99.90;;;;;;4970816;28;20062;-59
2022/02/28 00:03:38;;;;;;;4.57;3.03;;;9.50;99.90;;;;;;4970056;28;20106;-59
2022/02/28 00:06:06;;;;;;;6.25;4.90;;;9.50;99.90;;;;;;4972576;28;20043;-59
2022/02/28 00:08:34;;;;;;;6.43;4.03;;;9.50;99.90;;;;;;4971407;28;20406;-59
2022/02/28 00:11:02;;;;;;;4.47;3.47;;;9.60;99.90;;;;;;4970733;28;20043;-59
2022/02/28 00:13:29;;;;;;;5.97;3.40;;;9.60;99.90;;;;;;4971542;28;20043;-59
2022/02/28 00:15:57;;;;;;;4.63;3.70;;;9.60;99.90;;;;;;4971253;28;20498;-60
2022/02/28 00:18:25;;;;;;;5.57;3.70;;;9.60;99.90;;;;;;4972034;28;20047;-59
2022/02/28 00:20:53;;;;;;;6.20;3.78;;;9.60;99.90;;;;;;4972393;28;20138;-59
2022/02/28 00:23:21;;;;;;;5.03;3.70;;;9.70;99.90;;;;;;4971177;28;20126;-59
2022/02/28 00:25:49;;;;;;;4.65;3.20;;;9.70;99.90;;;;;;4968623;28;20050;-60
2022/02/28 00:28:16;;;;;;;4.22;3.33;;;9.70;99.90;;;;;;4970282;28;20057;-59
2022/02/28 00:30:44;;;;;;;5.03;2.60;;;9.70;99.90;;;;;;4971172;28;20413;-59
2022/02/28 00:33:11;;;;;;;3.67;2.58;;;9.70;99.90;;;;;;4974070;28;20114;-59
2022/02/28 00:35:39;;;;;;;3.88;2.83;;;9.70;99.90;;;;;;4975089;28;20070;-59
2022/02/28 00:38:11;;;;;;;3.47;2.40;;;9.70;99.90;;;;;;4974221;28;20054;-59
2022/02/28 00:40:39;;;;;;;3.53;2.65;;;9.70;99.90;;;;;;4972913;28;20138;-59
2022/02/28 00:43:07;;;;;;;5.65;3.33;;;9.70;99.90;;;;;;4974860;28;20051;-59
2022/02/28 00:45:36;;;;;;;4.10;2.45;;;9.70;99.90;;;;;;4974802;28;20463;-59
2022/02/28 00:48:04;;;;;;;4.57;2.35;;;9.70;99.90;;;;;;4963778;28;20101;-59
2022/02/28 00:50:32;;;;;;;3.60;2.00;;;9.70;99.90;;;;;;4974272;28;20382;-59
2022/02/28 00:52:59;;;;;;;2.40;1.88;;;9.60;99.90;;;;;;4974612;28;20039;-59
2022/02/28 00:55:28;;;;;;;3.22;1.73;;;9.60;99.90;;;;;;4973633;28;20437;-59
2022/02/28 00:58:22;;;;;;;3.78;1.60;;;9.60;99.90;;;;;;4957989;28;20102;-59
2022/02/28 01:00:50;;;;;;;3.75;2.13;;;9.60;99.90;;;;;;4989810;28;20409;-59
2022/02/28 01:03:19;;;;;;;1.88;1.10;;;9.60;99.90;;;;;;4960413;28;20075;-59
2022/02/28 01:05:47;;;;;;;1.80;1.13;;;9.70;99.90;;;;;;4942947;28;20162;-59
2022/02/28 01:08:14;;;;;;;3.47;1.50;;;9.70;99.90;;;;;;4973702;28;20049;-59
2022/02/28 01:10:43;;;;;;;3.42;1.25;;;9.80;99.90;;;;;;4973844;28;20047;-59
2022/02/28 01:13:11;;;;;;;3.80;1.40;;;9.80;99.90;;;;;;4973636;28;20062;-59
2022/02/28 01:15:42;;;;;;;3.53;1.40;;;9.80;99.90;;;;;;4972858;28;20074;-59
2022/02/28 01:18:09;;;;;;;3.47;1.83;;;9.90;99.90;;;;;;4954452;29;20125;-59
2022/02/28 01:20:37;;;;;;;4.63;1.98;;;9.90;99.90;;;;;;4973249;28;20404;-59
2022/02/28 01:23:10;;;;;;;2.38;1.52;;;9.90;99.90;;;;;;4973611;28;20066;-60
2022/02/28 01:25:38;;;;;;;1.70;1.10;;;10.00;99.90;;;;;;4974184;28;20051;-60
2022/02/28 01:28:06;;;;;;;1.88;1.30;;;10.00;99.90;;;;;;4973036;28;20065;-59
2022/02/28 01:30:33;;;;;;;2.28;1.70;;;10.00;99.90;;;;;;4972774;28;20409;-59
2022/02/28 01:33:01;;;;;;;3.60;1.83;;;10.00;99.90;;;;;;4970574;28;20066;-59
2022/02/28 01:35:29;;;;;;;2.80;1.50;;;10.00;99.90;;;;;;4971259;28;20049;-59
2022/02/28 01:37:57;;;;;;;2.08;1.40;;;10.00;99.90;;;;;;4976409;28;20449;-59
2022/02/28 01:40:26;;;;;;;2.33;1.95;;;10.00;99.90;;;;;;4976733;28;20045;-59
2022/02/28 01:42:55;;;;;;;2.90;1.55;;;9.90;99.90;;;;;;4972336;28;20053;-59
2022/02/28 01:45:23;;;;;;;2.30;1.30;;;9.90;99.90;;;;;;4958462;28;20046;-59
2022/02/28 01:47:53;;;;;;;1.77;1.23;;;9.90;99.90;;;;;;4975017;28;20046;-59
2022/02/28 01:50:22;;;;;;;1.85;1.20;;;9.80;99.90;;;;;;4975203;28;20053;-59
2022/02/28 01:52:51;;;;;;;1.52;1.02;;;9.70;99.90;;;;;;4959494;28;20039;-59
2022/02/28 01:55:20;;;;;;;2.10;1.10;;;9.70;99.90;;;;;;4975155;28;20062;-59
2022/02/28 01:57:48;;;;;;;4.22;1.85;;;9.70;99.90;;;;;;4958816;28;20046;-59
2022/02/28 02:00:21;;;;;;;1.45;1.17;;;9.70;99.90;;;;;;4958214;28;20086;-59
2022/02/28 02:02:48;;;;;;;1.98;1.30;;;9.70;99.90;;;;;;4974634;28;20042;-59
2022/02/28 02:05:16;;;;;;;1.73;1.25;;;9.60;99.90;;;;;;4974946;28;20406;-59
2022/02/28 02:07:46;;;;;;;2.75;1.52;;;9.60;99.90;;;;;;4959236;28;20129;-59
2022/02/28 02:10:15;;;;;;;3.22;1.52;;;9.60;99.90;;;;;;4975044;28;20129;-59
2022/02/28 02:12:44;;;;;;;2.50;2.15;;;9.60;99.90;;;;;;4975950;28;20557;-59
2022/02/28 02:15:16;;;;;;;3.00;1.90;;;9.50;99.90;;;;;;4974170;28;20045;-59
2022/02/28 02:17:44;;;;;;;3.03;1.98;;;9.50;99.90;;;;;;4974452;28;20371;-59
2022/02/28 02:20:36;;;;;;;3.38;1.80;;;9.50;99.90;;;;;;4958464;28;20521;-59
2022/02/28 02:23:12;;;;;;;3.70;2.20;;;9.50;99.90;;;;;;4974766;28;20050;-59
2022/02/28 02:25:41;;;;;;;4.72;2.13;;;9.40;99.90;;;;;;4974634;28;20390;-59
2022/02/28 02:28:16;;;;;;;3.30;2.40;;;9.40;99.90;;;;;;4974716;28;20038;-59
2022/02/28 02:30:49;;;;;;;3.40;2.40;;;9.40;99.90;;;;;;4974741;28;20430;-59
2022/02/28 02:33:17;;;;;;;4.05;2.83;;;9.30;99.90;;;;;;4974046;28;20043;-59
2022/02/28 02:36:07;;;;;;;3.40;2.40;;;9.30;99.90;;;;;;4974263;28;20387;-59
2022/02/28 02:38:41;;;;;;;3.72;2.45;;;9.30;99.90;;;;;;4974667;28;20046;-59
2022/02/28 02:41:08;;;;;;;3.33;2.22;;;9.30;99.90;;;;;;4974672;28;20134;-59
2022/02/28 02:43:36;;;;;;;4.28;2.72;;;9.20;99.90;;;;;;4975771;28;20350;-59
2022/02/28 02:46:04;;;;;;;3.45;2.63;;;9.20;99.90;;;;;;4973423;28;20063;-59
2022/02/28 02:48:32;;;;;;;4.18;2.70;;;9.20;99.90;;;;;;4973498;28;20043;-59
2022/02/28 02:51:16;;;;;;;3.92;2.78;;;9.10;99.90;;;;;;4974135;28;20114;-59
2022/02/28 02:53:45;;;;;;;4.47;2.75;;;9.20;99.90;;;;;;4974142;28;20047;-59
2022/02/28 02:56:14;;;;;;;4.05;2.45;;;9.10;99.90;;;;;;4941782;28;20133;-59
2022/02/28 02:58:43;;;;;;;4.30;2.45;;;9.10;99.90;;;;;;4974342;28;20129;-59
2022/02/28 03:01:10;;;;;;;4.50;2.53;;;9.10;99.90;;;;;;4973358;28;20332;-59
2022/02/28 03:03:38;;;;;;;3.83;2.45;;;9.10;99.90;;;;;;4973383;28;20058;-59
2022/02/28 03:06:05;;;;;;;3.08;2.20;;;9.10;99.90;;;;;;4974832;28;20042;-59
2022/02/28 03:08:35;;;;;;;4.90;3.03;;;9.00;99.90;;;;;;4973695;28;20039;-59
2022/02/28 03:11:02;;;;;;;4.30;2.42;;;9.00;99.90;;;;;;4973938;28;20049;-58
2022/02/28 03:13:30;;;;;;;4.78;2.70;;;9.00;99.90;;;;;;4957830;28;20047;-59
2022/02/28 03:15:58;;;;;;;5.28;3.40;;;9.00;99.90;;;;;;4973600;28;20097;-59
2022/02/28 03:18:27;;;;;;;4.70;3.50;;;9.00;99.90;;;;;;4973367;28;20051;-59
2022/02/28 03:20:55;;;;;;;5.15;2.83;;;8.90;99.90;;;;;;4973459;28;20038;-59
2022/02/28 03:23:25;;;;;;;5.20;3.45;;;9.00;99.90;;;;;;4973455;28;20054;-59
2022/02/28 03:26:02;;;;;;;5.75;3.33;;;8.90;99.90;;;;;;4973921;28;20504;-59
2022/02/28 03:28:30;;;;;;;5.60;3.40;;;8.90;99.90;;;;;;4973542;28;20097;-59
2022/02/28 03:30:57;;;;;;;4.05;2.88;;;8.90;99.90;;;;;;4974785;28;20058;-59
2022/02/28 03:33:27;;;;;;;6.03;3.40;;;8.90;99.90;;;;;;4972698;28;20046;-58
2022/02/28 03:35:56;;;;;;;5.80;2.92;;;8.90;99.90;;;;;;4941509;28;20473;-58
2022/02/28 03:38:24;;;;;;;4.78;2.25;;;8.80;99.90;;;;;;4973313;28;20042;-59
2022/02/28 03:40:52;;;;;;;6.15;2.70;;;8.80;99.90;;;;;;4973222;28;20378;-59
2022/02/28 03:43:20;;;;;;;5.03;3.33;;;8.80;99.90;;;;;;4973410;28;20556;-58
2022/02/28 03:46:00;;;;;;;7.07;2.50;;;8.80;99.90;;;;;;4973788;28;20046;-59
2022/02/28 03:48:36;;;;;;;3.35;2.33;;;8.80;99.90;;;;;;4957744;28;20047;-59
2022/02/28 03:51:30;;;;;;;4.10;2.65;;;8.70;99.90;;;;;;4973103;28;20059;-59
2022/02/28 03:53:57;;;;;;;5.55;2.72;;;8.70;99.90;;;;;;4973080;28;20043;-59
2022/02/28 03:56:25;;;;;;;6.63;3.30;;;8.70;99.90;;;;;;4973303;28;20370;-59
2022/02/28 03:58:53;;;;;;;4.75;3.08;;;8.70;99.90;;;;;;4973247;28;20490;-59
2022/02/28 04:01:20;;;;;;;7.10;3.00;;;8.70;99.90;;;;;;4974577;28;20105;-58
2022/02/28 04:03:56;;;;;;;6.80;3.22;;;8.70;99.90;;;;;;4972765;28;20117;-59
2022/02/28 04:06:23;;;;;;;4.15;2.40;;;8.70;99.90;;;;;;4973315;28;20430;-59
2022/02/28 04:08:51;;;;;;;3.97;2.65;;;8.70;99.90;;;;;;4975425;28;20038;-59
2022/02/28 04:11:19;;;;;;;4.15;2.22;;;8.70;99.90;;;;;;4961047;28;20093;-59
2022/02/28 04:17:29;;;;;;;4.85;2.45;;;8.70;99.90;;;;;;4978420;28;20497;-59
2022/02/28 04:19:59;;;;;;;4.78;2.03;;;8.70;99.90;;;;;;4976310;28;20046;-58
2022/02/28 04:22:30;;;;;;;3.97;2.05;;;8.70;99.90;;;;;;4976697;28;20053;-58
2022/02/28 04:24:58;;;;;;;3.88;2.17;;;8.80;99.90;;;;;;4976855;28;20061;-58
2022/02/28 04:27:25;;;;;;;4.32;2.10;;;8.80;99.90;;;;;;4960818;28;20054;-59
2022/02/28 04:29:53;;;;;;;5.18;2.08;;;8.80;99.90;;;;;;4976824;28;20446;-59
2022/02/28 04:32:24;;;;;;;6.72;2.58;;;8.70;99.90;;;;;;4976886;28;20042;-59
2022/02/28 04:34:58;;;;;;;3.83;2.47;;;8.80;99.90;;;;;;4976177;28;20401;-59
2022/02/28 04:37:29;;;;;;;4.75;2.63;;;8.80;99.90;;;;;;4975971;28;20378;-58
2022/02/28 04:39:57;;;;;;;9.77;2.60;;;8.70;99.90;;;;;;4961019;28;20042;-59
2022/02/28 04:46:07;;;;;;;5.60;2.65;;;8.70;99.90;;;;;;4976652;28;20050;-59
2022/02/28 04:48:35;;;;;;;2.92;2.05;;;8.70;99.90;;;;;;4976490;28;20536;-59
2022/02/28 04:51:23;;;;;;;4.95;2.15;;;8.70;99.90;;;;;;4975169;28;20468;-58
2022/02/28 04:53:51;;;;;;;3.53;1.88;;;8.70;99.90;;;;;;4960067;28;20035;-59
2022/02/28 04:56:19;;;;;;;5.32;2.70;;;8.70;99.90;;;;;;4960681;28;20149;-58
2022/02/28 04:58:46;;;;;;;3.67;1.85;;;8.70;99.90;;;;;;4976283;28;20046;-58
2022/02/28 05:01:34;;;;;;;4.25;2.25;;;8.70;99.90;;;;;;4977316;28;20055;-59
2022/02/28 05:04:15;;;;;;;3.97;1.90;;;8.70;99.90;;;;;;4946437;28;20101;-59
2022/02/28 05:06:43;;;;;;;3.35;2.03;;;8.70;99.90;;;;;;4976495;28;20658;-59
2022/02/28 05:09:12;;;;;;;3.33;1.98;;;8.80;99.90;;;;;;4960085;28;20053;-59
2022/02/28 05:11:39;;;;;;;2.95;1.70;;;8.70;99.90;;;;;;4975769;28;20042;-59
2022/02/28 05:14:07;;;;;;;3.83;2.30;;;8.80;99.90;;;;;;4960335;28;20074;-59
2022/02/28 05:16:35;;;;;;;4.15;2.13;;;8.80;99.90;;;;;;4975771;28;20512;-59
2022/02/28 05:19:03;;;;;;;7.05;2.10;;;8.80;99.90;;;;;;4975708;28;20397;-59
2022/02/28 05:21:32;;;;;;;3.63;2.15;;;8.80;99.90;;;;;;4975407;28;20098;-58
2022/02/28 05:24:00;;;;;;;6.18;2.40;;;8.80;99.90;;;;;;4975220;28;20053;-59
2022/02/28 05:26:28;;;;;;;5.93;1.60;;;8.80;99.90;;;;;;4975646;28;20047;-58
2022/02/28 05:29:48;;;;;;;4.85;2.35;;;8.80;99.90;;;;;;4975519;28;20117;-59
2022/02/28 05:32:18;;;;;;;4.15;2.35;;;8.90;99.90;;;;;;4975657;28;20042;-59
2022/02/28 05:34:54;;;;;;;3.75;2.40;;;8.90;99.90;;;;;;4977120;28;20047;-59
2022/02/28 05:37:38;;;;;;;3.03;1.80;;;9.00;99.90;;;;;;4975369;28;20490;-59
2022/02/28 05:40:09;;;;;;;3.45;1.90;;;9.10;99.90;;;;;;4975010;28;20455;-59
2022/02/28 05:42:38;;;;;;;4.22;2.00;;;9.20;99.90;;;;;;4975080;28;20051;-59
2022/02/28 05:45:08;;;;;;;3.60;2.08;;;9.30;99.90;;;;;;4959662;28;20568;-59
2022/02/28 05:51:24;;;;;;;5.85;2.40;;;9.50;99.90;;;;;;4976749;28;20050;-59
2022/02/28 05:53:52;;;;;;;7.78;2.40;;;9.70;99.90;;;;;;4975612;28;20050;-59
2022/02/28 05:56:20;;;;;;;3.85;2.15;;;9.70;99.90;;;;;;4974905;28;20058;-59
2022/02/28 05:58:47;;;;;;;4.65;2.78;;;9.70;99.90;;;;;;4976047;28;20126;-59
2022/02/28 06:01:15;;;;;;;5.50;2.30;;;9.70;99.90;;;;;;4991247;28;20154;-59
2022/02/28 06:03:42;;;;;;;4.93;2.33;;;9.60;99.90;;;;;;4976168;28;20061;-59
2022/02/28 06:06:10;;;;;;;4.43;2.20;;;9.60;99.90;;;;;;4976408;28;20074;-59
2022/02/28 06:08:39;;;;;;;6.82;3.30;;;9.50;99.90;;;;;;4974829;28;20051;-59
2022/02/28 06:11:07;;;;;;;4.57;2.08;;;9.40;99.90;;;;;;4974316;28;20072;-58
2022/02/28 06:13:35;;;;;;;5.22;2.30;;;9.40;99.90;;;;;;4974703;28;20039;-58
2022/02/28 06:16:03;;;;;;;5.50;2.80;;;9.40;99.90;;;;;;4974445;28;20102;-59
2022/02/28 06:18:31;;;;;;;6.00;2.67;;;9.40;99.90;;;;;;4974999;28;20043;-59
2022/02/28 06:20:58;;;;;;;3.80;2.17;;;9.60;99.90;;;;;;4976236;28;20062;-59
2022/02/28 06:23:28;;;;;;;4.53;2.50;;;9.90;99.90;;;;;;4976070;28;20106;-59
2022/02/28 06:25:56;;;;;;;3.55;2.40;;;10.10;99.90;;;;;;4957869;28;20062;-59
2022/02/28 06:28:25;;;;;;;4.05;2.25;;;10.40;99.90;;;;;;4974311;28;20050;-59
2022/02/28 06:30:53;;;;;;;6.65;2.47;;;10.70;99.90;;;;;;4958012;28;20110;-59
2022/02/28 06:33:22;;;;;;;4.10;2.50;;;11.10;99.90;;;;;;4975918;28;20054;-59
2022/02/28 06:35:49;;;;;;;4.05;2.83;;;11.40;99.90;;;;;;4975985;28;20039;-59
2022/02/28 06:38:19;;;;;;;5.05;2.55;;;11.60;99.90;;;;;;4974703;28;20046;-59
2022/02/28 06:40:50;;;;;;;5.22;2.90;;;11.90;99.90;;;;;;4974916;28;20046;-59
2022/02/28 06:43:24;;;;;;;5.25;3.28;;;11.90;99.90;;;;;;4973648;28;20102;-59
2022/02/28 06:45:53;;;;;;;6.28;2.75;;;11.80;99.90;;;;;;4974235;28;20047;-58
2022/02/28 06:48:21;;;;;;;3.00;2.30;;;11.80;99.90;;;;;;4958098;28;20379;-59
2022/02/28 06:50:50;;;;;;;2.92;2.40;;;12.10;99.90;;;;;;4975465;28;20043;-59
2022/02/28 06:53:23;;;;;;;5.00;2.60;;;12.60;99.90;;;;;;4958368;28;20481;-59
2022/02/28 06:55:54;;;;;;;4.05;2.30;;;13.20;99.90;;;;;;4941765;28;20552;-59
2022/02/28 06:58:22;;;;;;;4.18;1.90;;;13.80;99.00;;;;;;4957850;28;20486;-59
2022/02/28 07:00:51;;;;;;;7.30;3.15;;;14.50;98.20;;;;;;4974019;28;20043;-59
2022/02/28 07:03:42;;;;;;;6.55;2.92;;;14.90;97.40;;;;;;4958070;28;20047;-59
2022/02/28 07:06:20;;;;;;;3.63;2.45;;;15.20;96.70;;;;;;4973893;28;20074;-59
2022/02/28 07:08:48;;;;;;;5.70;1.95;;;15.30;96.40;;;;;;4975248;28;20050;-59
2022/02/28 07:11:16;;;;;;;7.13;3.63;;;15.30;95.90;;;;;;4974834;28;20094;-59
2022/02/28 07:13:43;;;;;;;5.10;2.22;;;15.30;95.30;;;;;;4974466;28;20129;-59
2022/02/28 07:16:11;;;;;;;6.70;3.38;;;15.20;94.60;;;;;;4973261;28;20047;-59
2022/02/28 07:18:39;;;;;;;7.07;4.32;;;15.20;94.50;;;;;;4957605;28;20047;-59
2022/02/28 07:21:07;;;;;;;5.25;2.90;;;15.20;94.30;;;;;;4973718;28;20164;-59
2022/02/28 07:23:35;;;;;;;4.68;3.03;;;15.20;93.70;;;;;;4974717;28;20039;-59
2022/02/28 07:26:02;;;;;;;3.97;1.60;;;15.00;93.40;;;;;;4973914;28;20078;-59
2022/02/28 07:28:30;;;;;;;6.35;2.72;;;14.60;93.60;;;;;;4972611;28;20490;-59
2022/02/28 07:34:40;;;;;;;3.53;2.30;;;14.30;93.80;;;;;;4969292;28;20170;-59
2022/02/28 07:37:08;;;;;;;4.05;2.53;;;14.30;93.70;;;;;;4970471;28;20167;-59
2022/02/28 07:39:36;;;;;;;3.80;2.10;;;14.40;93.30;;;;;;4969236;28;20051;-59
2022/02/28 07:42:04;;;;;;;3.70;2.72;;;14.40;93.00;;;;;;4969907;28;20117;-59
2022/02/28 07:44:31;;;;;;;4.25;2.00;;;14.60;92.90;;;;;;4970765;28;20058;-60
2022/02/28 07:46:59;;;;;;;3.88;1.70;;;14.70;93.00;;;;;;4971767;28;20413;-59
2022/02/28 07:49:33;;;;;;;2.15;1.60;;;14.70;92.30;;;;;;4971462;28;20094;-60
2022/02/28 07:52:02;;;;;;;5.38;2.53;;;14.60;91.60;;;;;;4971850;28;20039;-59
2022/02/28 07:54:29;;;;;;;2.53;1.63;;;14.60;91.90;;;;;;4971301;28;20051;-59
2022/02/28 07:56:57;;;;;;;3.83;2.55;;;14.70;92.10;;;;;;4971772;28;20389;-59
2022/02/28 07:59:24;;;;;;;3.65;2.28;;;14.80;91.80;;;;;;4970897;28;20043;-59
2022/02/28 08:01:52;;;;;;;2.88;1.67;;;14.80;92.00;;;;;;4967944;28;20051;-59
2022/02/28 08:04:20;;;;;;;5.90;2.25;;;14.80;91.70;;;;;;4968247;28;20047;-59
2022/02/28 08:06:47;;;;;;;2.88;1.60;;;14.70;91.20;;;;;;4968710;28;20039;-59
2022/02/28 08:09:16;;;;;;;3.55;1.38;;;14.70;91.00;;;;;;4972343;28;20034;-59
2022/02/28 08:11:46;;;;;;;4.07;1.90;;;14.80;91.20;;;;;;4972187;28;20070;-59
2022/02/28 08:14:13;;;;;;;2.80;1.70;;;14.70;91.10;;;;;;4971386;28;20086;-60
2022/02/28 08:16:42;;;;;;;3.47;1.92;;;14.80;91.20;;;;;;4971130;28;20031;-59
2022/02/28 08:19:12;;;;;;;2.88;1.83;;;14.90;91.00;;;;;;4969767;28;20035;-59
2022/02/28 08:21:39;;;;;;;7.13;3.28;;;14.90;90.50;;;;;;4968597;28;20494;-59
2022/02/28 08:24:07;;;;;;;5.55;1.58;;;14.80;90.00;;;;;;4970818;28;20047;-59
2022/02/28 08:26:35;;;;;;;3.53;1.10;;;14.60;89.60;;;;;;4971813;28;20039;-59
2022/02/28 08:29:03;;;;;;;3.95;1.77;;;14.80;89.50;;;;;;4970992;28;20055;-59
2022/02/28 08:31:31;;;;;;;5.28;2.10;;;14.80;90.00;;;;;;4971002;28;20462;-59
2022/02/28 08:33:58;;;;;;;5.78;3.28;;;14.70;90.00;;;;;;4970371;28;20049;-59
2022/02/28 08:36:26;;;;;;;3.42;1.55;;;14.90;90.10;;;;;;4972413;28;20156;-59
2022/02/28 08:38:54;;;;;;;3.50;1.55;;;15.00;89.10;;;;;;4970764;28;20042;-59
2022/02/28 08:41:21;;;;;;;3.13;2.00;;;15.00;88.30;;;;;;4972264;28;20082;-59
2022/02/28 08:43:49;;;;;;;3.65;1.85;;;15.10;88.80;;;;;;4971535;28;20142;-59
2022/02/28 08:46:16;;;;;;;3.55;1.60;;;15.10;88.10;;;;;;4971057;28;20117;-59
2022/02/28 08:48:44;;;;;;;4.22;1.92;;;15.00;88.50;;;;;;4971373;28;20068;-59
2022/02/28 08:51:12;;;;;;;2.85;1.88;;;15.00;89.00;;;;;;4967710;28;20046;-59
2022/02/28 08:53:39;;;;;;;2.25;1.85;;;15.00;88.60;;;;;;4967518;28;20047;-59
2022/02/28 08:56:08;;;;;;;4.57;2.28;;;14.90;88.00;;;;;;4974259;28;20056;-59
2022/02/28 08:58:36;;;;;;;5.35;1.55;;;14.90;88.30;;;;;;4974563;28;20047;-60
2022/02/28 09:01:03;;;;;;;4.13;1.50;;;14.90;88.40;;;;;;4974539;28;20047;-59
2022/02/28 09:03:31;;;;;;;4.93;2.13;;;14.70;87.10;;;;;;4974570;28;20501;-60
2022/02/28 09:06:02;;;;;;;2.35;1.23;;;14.80;87.20;;;;;;4973904;28;20391;-60
2022/02/28 09:08:29;;;;;;;3.10;2.35;;;15.00;85.90;;;;;;4958679;28;20062;-60
2022/02/28 09:11:00;;;;;;;4.35;1.52;;;15.20;85.40;;;;;;4974941;28;20465;-60
2022/02/28 09:13:27;;;;;;;2.25;1.40;;;15.10;84.50;;;;;;4976967;28;20089;-60
2022/02/28 09:15:56;;;;;;;3.47;1.42;;;14.80;84.20;;;;;;4975834;28;20054;-60
2022/02/28 09:18:26;;;;;;;4.18;1.58;;;14.90;84.00;;;;;;4976353;28;20078;-59
2022/02/28 09:20:53;;;;;;;2.65;1.75;;;15.00;84.70;;;;;;4975781;28;20052;-60
2022/02/28 09:23:21;;;;;;;3.50;1.50;;;15.00;85.00;;;;;;4975907;28;20074;-59
2022/02/28 09:25:52;;;;;;;4.43;1.80;;;15.00;85.40;;;;;;4977175;28;20047;-60
2022/02/28 09:28:19;;;;;;;5.03;2.20;;;15.00;85.80;;;;;;4977090;28;20410;-60
2022/02/28 09:30:47;;;;;;;5.07;2.47;;;15.00;86.00;;;;;;4975681;28;20394;-60
2022/02/28 09:33:15;;;;;;;2.90;2.20;;;15.20;85.80;;;;;;4974854;28;20445;-60
2022/02/28 09:35:45;;;;;;;3.90;2.05;;;15.30;85.70;;;;;;4976336;28;20055;-60
2022/02/28 09:38:17;;;;;;;3.50;1.85;;;15.50;84.10;;;;;;4975474;28;20062;-59
2022/02/28 09:40:48;;;;;;;5.20;2.75;;;15.40;82.80;;;;;;4976557;28;20038;-60
2022/02/28 09:43:35;;;;;;;5.10;2.17;;;15.30;83.40;;;;;;4976515;28;20059;-60
2022/02/28 09:46:34;;;;;;;4.60;2.22;;;15.20;85.10;;;;;;4980489;28;20050;-60
2022/02/28 09:49:32;;;;;;;4.00;1.92;;;15.30;86.10;;;;;;4975628;28;20095;-60
2022/02/28 09:52:18;;;;;;;4.40;1.60;;;15.20;86.60;;;;;;4975322;28;20434;-60
2022/02/28 09:55:15;;;;;;;4.38;2.05;;;15.20;85.80;;;;;;4980102;28;20055;-59
2022/02/28 09:58:09;;;;;;;4.35;1.50;;;15.20;84.40;;;;;;4975547;28;20047;-60
2022/02/28 10:00:48;;;;;;;4.00;1.73;;;15.30;83.80;;;;;;4975522;28;20043;-60
2022/02/28 10:03:19;;;;;;;3.88;2.08;;;15.30;84.10;;;;;;4974711;28;20349;-59
2022/02/28 10:05:48;;;;;;;12.82;3.53;;;15.40;83.20;;;;;;4941174;28;20409;-59
2022/02/28 10:08:16;;;;;;;6.63;3.80;;;15.50;82.90;;;;;;4974906;28;20126;-60
2022/02/28 10:10:45;;;;;;;7.47;2.88;;;15.60;83.70;;;;;;4973685;28;20050;-60
2022/02/28 10:13:12;;;;;;;5.55;2.35;;;15.70;81.70;;;;;;4972681;28;20101;-60
2022/02/28 10:15:40;;;;;;;4.72;2.28;;;15.70;79.70;;;;;;4973300;28;20449;-59
2022/02/28 10:18:07;;;;;;;5.90;2.25;;;15.60;78.50;;;;;;4973428;28;20067;-60
2022/02/28 10:20:37;;;;;;;5.00;2.53;;;15.70;78.80;;;;;;4970582;28;20039;-60
2022/02/28 10:23:13;;;;;;;5.20;3.72;;;15.70;79.50;;;;;;4972378;28;20038;-60
2022/02/28 10:26:07;;;;;;;9.50;4.38;;;15.70;79.90;;;;;;4972509;28;20497;-60
2022/02/28 10:29:06;;;;;;;5.80;2.50;;;15.60;79.80;;;;;;4973493;28;20074;-61
2022/02/28 10:31:58;;;;;;;4.75;1.90;;;15.50;78.00;;;;;;4967897;28;20053;-60
2022/02/28 10:34:30;;;;;;;4.17;2.40;;;15.40;77.90;;;;;;4962365;28;20037;-58
2022/02/28 10:37:16;;;;;;;7.38;2.72;;;15.50;78.20;;;;;;4972407;28;20031;-57
2022/02/28 10:39:44;;;;;;;5.30;2.20;;;15.40;78.00;;;;;;4972433;28;20043;-60
2022/02/28 10:42:18;;;;;;;4.50;2.97;;;15.40;78.00;;;;;;4943022;29;20051;-61
2022/02/28 10:44:48;;;;;;;4.28;2.38;;;15.50;78.10;;;;;;4970148;28;20039;-60
2022/02/28 10:47:15;;;;;;;2.63;1.40;;;15.40;78.10;;;;;;4973111;28;20070;-60
2022/02/28 10:49:43;;;;;;;2.33;1.35;;;15.50;77.60;;;;;;4972982;28;20413;-61
2022/02/28 10:52:12;;;;;;;3.65;1.60;;;15.50;77.70;;;;;;4971062;28;20474;-60
2022/02/28 10:54:41;;;;;;;4.95;3.00;;;15.60;78.30;;;;;;4972253;28;20043;-61
2022/02/28 10:57:08;;;;;;;5.75;2.50;;;15.70;78.00;;;;;;4971721;28;20042;-60
2022/02/28 10:59:42;;;;;;;3.55;2.28;;;15.70;79.90;;;;;;4972366;28;20056;-60
2022/02/28 11:02:28;;;;;;;4.38;1.70;;;15.80;81.30;;;;;;4960173;28;20054;-59
2022/02/28 11:05:07;;;;;;;3.10;1.55;;;15.90;79.40;;;;;;4971030;28;20557;-61
2022/02/28 11:07:47;;;;;;;4.45;1.80;;;15.90;78.10;;;;;;4972992;28;20043;-61
2022/02/28 11:10:17;;;;;;;6.43;2.88;;;16.00;76.70;;;;;;4971979;28;20043;-61
2022/02/28 11:12:47;;;;;;;4.75;2.10;;;16.00;77.20;;;;;;4971608;28;20430;-61
2022/02/28 11:15:20;;;;;;;3.28;2.00;;;15.90;75.60;;;;;;4946436;28;20063;-60
2022/02/28 11:17:52;;;;;;;3.28;1.40;;;15.90;77.00;;;;;;4961525;28;20043;-60
2022/02/28 11:20:21;;;;;;;4.22;1.83;;;15.80;75.10;;;;;;4955896;28;20035;-59
2022/02/28 11:22:50;;;;;;;2.95;1.95;;;15.70;75.50;;;;;;4955022;28;20039;-60
2022/02/28 11:25:21;;;;;;;2.28;1.40;;;15.70;75.90;;;;;;4954090;28;20055;-60
2022/02/28 11:27:50;;;;;;;2.92;1.70;;;15.70;74.90;;;;;;4938700;29;20414;-60
2022/02/28 11:30:24;;;;;;;5.40;2.05;;;15.70;75.60;;;;;;4954429;29;20478;-58
2022/02/28 11:32:58;;;;;;;3.05;1.42;;;15.80;78.00;;;;;;4955610;29;20110;-58
2022/02/28 11:35:38;;;;;;;2.83;1.83;;;15.70;76.60;;;;;;4954510;29;20044;-58
2022/02/28 11:38:15;;;;;;;3.28;1.80;;;15.50;76.60;;;;;;4954226;28;20181;-58
2022/02/28 11:40:52;;;;;;;4.15;1.90;;;15.50;77.20;;;;;;4954374;28;20047;-58
2022/02/28 11:43:23;;;;;;;4.78;2.53;;;15.30;76.50;;;;;;4955145;28;20048;-57
2022/02/28 11:45:59;;;;;;;3.92;2.30;;;15.40;76.90;;;;;;4954252;29;20074;-57
2022/02/28 11:48:46;;;;;;;;;;;15.50;76.00;;;;;;4954687;29;20177;-57
2022/02/28 11:51:25;;;;;;;3.80;2.00;;;15.50;75.30;;;;;;4954106;28;19928;-57
2022/02/28 11:53:54;;;;;;;5.68;2.53;;;15.40;75.50;;;;;;4954730;29;20040;-57
2022/02/28 11:56:26;;;;;;;5.00;2.28;;;15.30;76.50;;;;;;4954938;28;20051;-57
2022/02/28 11:58:56;;;;;;;4.65;2.10;;;15.20;76.60;;;;;;4953988;29;20122;-57
2022/02/28 12:01:36;;;;;;;4.65;2.03;;;15.10;77.30;;;;;;4955012;28;20040;-58
2022/02/28 12:04:15;;;;;;;2.92;1.85;;;15.10;77.10;;;;;;4954228;29;20074;-60
2022/02/28 12:07:03;;;;;;;4.85;2.47;;;15.00;77.80;;;;;;4954081;28;20086;-60
2022/02/28 12:09:33;;;;;;;4.32;2.50;;;14.80;77.10;;;;;;4953095;28;20047;-58
2022/02/28 12:12:33;;;;;;;3.70;2.08;;;14.70;77.50;;;;;;4937741;29;20536;-58
2022/02/28 12:15:02;;;;;;;3.72;1.63;;;14.70;77.80;;;;;;4955003;29;20043;-60
2022/02/28 12:20:20;;;;;;;3.42;2.08;;;14.70;78.80;;;;;;4953958;29;20051;-58
2022/02/28 12:23:08;;;;;;;3.70;1.63;;;14.60;79.40;;;;;;4953878;29;20047;-58
2022/02/28 12:25:51;;;;;;;3.45;1.70;;;14.60;78.40;;;;;;4954168;29;20051;-58
2022/02/28 12:28:34;;;;;;;4.60;2.28;;;14.70;77.70;;;;;;4938011;29;20106;-58
2022/02/28 12:31:07;;;;;;;2.70;1.48;;;14.50;76.80;;;;;;4957187;28;20043;-58
2022/02/28 12:33:34;;;;;;;2.97;1.52;;;14.50;76.90;;;;;;4958808;29;20039;-58
2022/02/28 12:36:08;;;;;;;3.55;1.67;;;14.40;77.70;;;;;;4958432;29;20047;-58
2022/02/28 12:38:47;;;;;;;3.63;1.63;;;14.40;77.30;;;;;;4941512;29;20406;-58
2022/02/28 12:41:17;;;;;;;5.15;1.60;;;14.40;77.40;;;;;;4958101;29;20050;-58
2022/02/28 12:43:46;;;;;;;6.22;2.28;;;14.30;76.70;;;;;;4957876;28;20051;-58
2022/02/28 12:46:17;;;;;;;6.45;1.98;;;14.40;77.10;;;;;;4958465;28;20050;-58
2022/02/28 12:48:47;;;;;;;6.28;2.72;;;14.50;77.30;;;;;;4973324;28;20051;-58
2022/02/28 12:51:18;;;;;;;4.32;1.98;;;14.50;77.80;;;;;;4958434;28;20138;-58
2022/02/28 12:53:46;;;;;;;3.05;1.52;;;14.40;75.10;;;;;;4957243;28;20098;-58
2022/02/28 12:56:18;;;;;;;4.82;1.95;;;14.40;75.40;;;;;;4956108;29;20081;-59
2022/02/28 12:58:49;;;;;;;2.95;1.58;;;14.40;76.20;;;;;;4956428;29;20058;-59
2022/02/28 13:01:22;;;;;;;4.55;2.45;;;14.30;76.00;;;;;;4957711;28;20035;-59
2022/02/28 13:04:02;;;;;;;3.25;2.08;;;14.30;75.00;;;;;;4957083;29;20150;-59
2022/02/28 13:06:43;;;;;;;6.85;2.08;;;14.10;74.20;;;;;;4958090;28;20051;-59
2022/02/28 13:09:14;;;;;;;6.13;3.33;;;14.00;74.50;;;;;;4957272;28;20134;-59
2022/02/28 13:11:47;;;;;;;3.00;1.67;;;13.90;74.30;;;;;;4940507;29;20051;-59
2022/02/28 13:14:17;;;;;;;6.95;2.67;;;14.00;75.10;;;;;;4957304;29;20047;-59
2022/02/28 13:16:50;;;;;;;2.20;1.65;;;14.00;74.90;;;;;;4956256;28;20094;-58
2022/02/28 13:19:32;;;;;;;3.30;1.50;;;13.90;75.30;;;;;;4940587;29;20495;-58
2022/02/28 13:22:09;;;;;;;3.92;2.30;;;13.70;74.90;;;;;;4956597;29;20059;-58
2022/02/28 13:24:41;;;;;;;4.43;1.58;;;13.70;75.70;;;;;;4957684;29;20102;-58
2022/02/28 13:27:11;;;;;;;3.72;1.90;;;13.70;76.50;;;;;;4924376;29;20051;-58
2022/02/28 13:29:40;;;;;;;5.22;2.00;;;13.70;76.90;;;;;;4957068;28;20047;-59